createdAt,value
2023-05-01T00:00:49.822Z,42.26
2023-05-01T00:01:49.828Z,42.27
2023-05-01T00:02:49.907Z,42.26
2023-05-01T00:03:49.964Z,42.26
2023-05-01T00:04:49.909Z,42.25
2023-05-01T00:05:49.856Z,42.26
2023-05-01T00:06:49.927Z,42.24
2023-05-01T00:07:49.870Z,42.24
2023-05-01T00:08:49.878Z,42.24
2023-05-01T00:09:49.884Z,42.26
2023-05-01T00:10:49.888Z,42.28
2023-05-01T00:11:49.913Z,42.25
2023-05-01T00:12:49.891Z,42.25
2023-05-01T00:13:49.894Z,42.27
2023-05-01T00:14:49.895Z,42.25
2023-05-01T00:15:49.904Z,42.27
2023-05-01T00:16:50.053Z,42.27
2023-05-01T00:17:50.020Z,42.23
2023-05-01T00:18:49.908Z,42.24
2023-05-01T00:19:49.910Z,42.26
2023-05-01T00:20:49.920Z,42.26
2023-05-01T00:21:49.915Z,42.26
2023-05-01T00:22:49.923Z,42.27
2023-05-01T00:23:49.953Z,42.27
2023-05-01T00:24:49.961Z,42.26
2023-05-01T00:25:49.948Z,42.26
2023-05-01T00:26:49.934Z,42.28
2023-05-01T00:27:49.935Z,42.26
2023-05-01T00:28:49.943Z,42.28
2023-05-01T00:29:49.982Z,42.24
2023-05-01T00:30:50.002Z,42.30
2023-05-01T00:31:50.124Z,42.34
2023-05-01T00:32:50.133Z,42.34
2023-05-01T00:33:50.084Z,42.34
2023-05-01T00:34:50.110Z,42.34
2023-05-01T00:35:50.144Z,42.33
2023-05-01T00:36:50.191Z,42.35
2023-05-01T00:37:50.179Z,42.38
2023-05-01T00:38:50.205Z,42.37
2023-05-01T00:39:50.224Z,42.39
2023-05-01T00:40:50.247Z,42.38
2023-05-01T00:41:50.269Z,42.40
2023-05-01T00:42:50.283Z,42.37
2023-05-01T00:43:50.303Z,42.43
2023-05-01T00:44:50.320Z,42.41
2023-05-01T00:45:50.487Z,42.43
2023-05-01T00:46:50.353Z,42.45
2023-05-01T00:47:50.404Z,42.42
2023-05-01T00:48:50.352Z,42.44
2023-05-01T00:49:50.363Z,42.43
2023-05-01T00:50:50.384Z,42.43
2023-05-01T00:51:50.381Z,42.44
2023-05-01T00:52:50.448Z,42.46
2023-05-01T00:53:50.387Z,42.48
2023-05-01T00:54:50.419Z,42.48
2023-05-01T00:55:50.428Z,42.52
2023-05-01T00:56:50.438Z,42.51
2023-05-01T00:57:50.451Z,42.52
2023-05-01T00:58:50.470Z,42.49
2023-05-01T00:59:50.503Z,42.53
2023-05-01T01:00:50.493Z,42.52
2023-05-01T01:01:50.483Z,42.54
2023-05-01T01:02:50.539Z,42.57
2023-05-01T01:03:50.495Z,42.53
2023-05-01T01:04:50.591Z,42.54
2023-05-01T01:05:50.508Z,42.57
2023-05-01T01:06:50.604Z,42.56
2023-05-01T01:07:50.493Z,42.57
2023-05-01T01:08:50.524Z,42.57
2023-05-01T01:09:50.534Z,42.56
2023-05-01T01:10:50.540Z,42.58
2023-05-01T01:11:50.565Z,42.59
2023-05-01T01:12:50.618Z,42.59
2023-05-01T01:13:50.649Z,42.59
2023-05-01T01:14:50.669Z,42.60
2023-05-01T01:15:50.753Z,42.63
2023-05-01T01:16:50.830Z,42.64
2023-05-01T01:17:50.864Z,42.65
2023-05-01T01:18:50.841Z,42.65
2023-05-01T01:19:50.884Z,42.63
2023-05-01T01:20:50.910Z,42.67
2023-05-01T01:21:50.936Z,42.69
2023-05-01T01:22:50.959Z,42.67
2023-05-01T01:23:50.996Z,42.69
2023-05-01T01:24:51.019Z,42.69
2023-05-01T01:25:51.027Z,42.69
2023-05-01T01:26:51.088Z,42.71
2023-05-01T01:27:51.108Z,42.70
2023-05-01T01:28:51.139Z,42.72
2023-05-01T01:29:51.178Z,42.72
2023-05-01T01:30:51.267Z,42.73
2023-05-01T01:31:51.229Z,42.76
2023-05-01T01:32:51.281Z,42.75
2023-05-01T01:33:51.290Z,42.73
2023-05-01T01:34:51.282Z,42.73
2023-05-01T01:35:51.306Z,42.74
2023-05-01T01:36:51.350Z,42.74
2023-05-01T01:37:51.378Z,42.75
2023-05-01T01:38:51.421Z,42.76
2023-05-01T01:39:51.456Z,42.76
2023-05-01T01:40:51.493Z,42.76
2023-05-01T01:41:51.523Z,42.77
2023-05-01T01:42:51.556Z,42.76
2023-05-01T01:43:51.611Z,42.77
2023-05-01T01:44:51.637Z,42.79
2023-05-01T01:45:51.724Z,42.78
2023-05-01T01:46:51.697Z,42.76
2023-05-01T01:47:51.757Z,42.77
2023-05-01T01:48:51.781Z,42.75
2023-05-01T01:49:51.846Z,42.74
2023-05-01T01:50:51.867Z,42.76
2023-05-01T01:51:51.920Z,42.78
2023-05-01T01:52:51.982Z,42.75
2023-05-01T01:53:52.005Z,42.78
2023-05-01T01:54:52.050Z,42.79
2023-05-01T01:55:52.101Z,42.78
2023-05-01T01:56:52.139Z,42.80
2023-05-01T01:57:52.176Z,42.82
2023-05-01T01:58:52.254Z,42.80
2023-05-01T01:59:52.310Z,42.81
2023-05-01T02:00:52.344Z,42.83
2023-05-01T02:01:52.460Z,42.81
2023-05-01T02:02:52.518Z,42.82
2023-05-01T02:03:52.562Z,42.83
2023-05-01T02:04:52.552Z,42.80
2023-05-01T02:05:52.572Z,42.83
2023-05-01T02:06:52.686Z,42.83
2023-05-01T02:07:52.646Z,42.84
2023-05-01T02:08:52.713Z,42.84
2023-05-01T02:09:52.727Z,42.86
2023-05-01T02:10:52.769Z,42.85
2023-05-01T02:11:52.817Z,42.84
2023-05-01T02:12:52.872Z,42.83
2023-05-01T02:13:52.922Z,42.84
2023-05-01T02:14:52.971Z,42.87
2023-05-01T02:15:53.067Z,42.86
2023-05-01T02:16:53.110Z,42.86
2023-05-01T02:17:53.368Z,42.87
2023-05-01T02:18:53.224Z,42.86
2023-05-01T02:19:53.344Z,42.89
2023-05-01T02:20:53.294Z,42.88
2023-05-01T02:21:53.334Z,42.86
2023-05-01T02:22:53.412Z,42.88
2023-05-01T02:23:53.396Z,42.89
2023-05-01T02:24:53.455Z,42.89
2023-05-01T02:25:53.521Z,42.86
2023-05-01T02:26:53.537Z,42.89
2023-05-01T02:27:53.580Z,42.89
2023-05-01T02:28:53.611Z,42.89
2023-05-01T02:29:53.916Z,42.89
2023-05-01T02:30:53.759Z,42.90
2023-05-01T02:31:53.897Z,42.90
2023-05-01T02:32:53.943Z,42.90
2023-05-01T02:33:53.912Z,42.90
2023-05-01T02:34:53.936Z,42.90
2023-05-01T02:35:54.628Z,42.90
2023-05-01T02:36:53.997Z,42.90
2023-05-01T02:37:54.059Z,42.92
2023-05-01T02:38:54.089Z,42.91
2023-05-01T02:39:54.216Z,42.93
2023-05-01T02:40:54.208Z,42.91
2023-05-01T02:41:54.253Z,42.91
2023-05-01T02:42:54.309Z,42.92
2023-05-01T02:43:54.335Z,42.94
2023-05-01T02:44:54.376Z,42.94
2023-05-01T02:45:54.521Z,42.94
2023-05-01T02:46:54.560Z,42.94
2023-05-01T02:47:54.650Z,42.93
2023-05-01T02:48:54.580Z,42.94
2023-05-01T02:49:54.887Z,42.93
2023-05-01T02:50:54.674Z,42.94
2023-05-01T02:51:54.645Z,42.96
2023-05-01T02:52:54.635Z,42.95
2023-05-01T02:53:54.628Z,42.94
2023-05-01T02:54:54.615Z,42.95
2023-05-01T02:55:54.618Z,42.93
2023-05-01T02:56:54.610Z,42.97
2023-05-01T02:57:54.608Z,42.97
2023-05-01T02:58:54.598Z,42.95
2023-05-01T02:59:54.733Z,42.97
2023-05-01T03:00:54.669Z,42.95
2023-05-01T03:01:54.581Z,42.99
2023-05-01T03:02:54.674Z,42.98
2023-05-01T03:03:54.703Z,42.95
2023-05-01T03:04:54.746Z,42.98
2023-05-01T03:05:54.808Z,42.98
2023-05-01T03:06:54.847Z,42.98
2023-05-01T03:07:54.908Z,42.99
2023-05-01T03:08:54.968Z,42.97
2023-05-01T03:09:55.198Z,42.99
2023-05-01T03:10:55.091Z,43.01
2023-05-01T03:11:55.120Z,42.97
2023-05-01T03:12:55.174Z,43.00
2023-05-01T03:13:55.216Z,42.99
2023-05-01T03:14:55.254Z,43.01
2023-05-01T03:15:55.382Z,43.00
2023-05-01T03:16:55.373Z,43.00
2023-05-01T03:17:55.443Z,42.98
2023-05-01T03:18:55.436Z,43.00
2023-05-01T03:19:55.664Z,42.99
2023-05-01T03:20:55.517Z,43.01
2023-05-01T03:21:55.571Z,43.04
2023-05-01T03:22:55.609Z,43.04
2023-05-01T03:23:55.625Z,43.05
2023-05-01T03:24:55.682Z,43.03
2023-05-01T03:25:55.725Z,43.00
2023-05-01T03:26:55.780Z,43.03
2023-05-01T03:27:55.862Z,43.01
2023-05-01T03:28:55.872Z,43.02
2023-05-01T03:29:56.054Z,43.02
2023-05-01T03:30:55.994Z,43.02
2023-05-01T03:31:56.105Z,43.01
2023-05-01T03:32:56.114Z,43.07
2023-05-01T03:33:56.163Z,43.03
2023-05-01T03:34:56.253Z,43.03
2023-05-01T03:35:56.250Z,43.06
2023-05-01T03:36:56.282Z,43.03
2023-05-01T03:37:56.323Z,43.06
2023-05-01T03:38:56.328Z,43.07
2023-05-01T03:39:56.517Z,43.06
2023-05-01T03:40:56.330Z,43.08
2023-05-01T03:41:56.336Z,43.08
2023-05-01T03:42:56.317Z,43.07
2023-05-01T03:43:56.327Z,43.07
2023-05-01T03:44:56.317Z,43.07
2023-05-01T03:45:56.344Z,43.07
2023-05-01T03:46:56.303Z,43.08
2023-05-01T03:47:56.300Z,43.09
2023-05-01T03:48:56.338Z,43.08
2023-05-01T03:49:56.597Z,43.09
2023-05-01T03:50:56.433Z,43.12
2023-05-01T03:51:56.506Z,43.06
2023-05-01T03:52:56.544Z,43.09
2023-05-01T03:53:56.572Z,43.12
2023-05-01T03:54:56.623Z,43.11
2023-05-01T03:55:56.678Z,43.10
2023-05-01T03:56:56.734Z,43.12
2023-05-01T03:57:56.775Z,43.12
2023-05-01T03:58:56.827Z,43.12
2023-05-01T03:59:57.027Z,43.13
2023-05-01T04:00:56.970Z,43.12
2023-05-01T04:01:57.012Z,43.13
2023-05-01T04:02:57.212Z,43.11
2023-05-01T04:03:57.108Z,43.10
2023-05-01T04:04:57.111Z,43.14
2023-05-01T04:05:57.196Z,43.14
2023-05-01T04:06:57.244Z,43.11
2023-05-01T04:07:57.273Z,43.15
2023-05-01T04:08:57.348Z,43.15
2023-05-01T04:09:57.541Z,43.16
2023-05-01T04:10:57.452Z,43.14
2023-05-01T04:11:57.496Z,43.17
2023-05-01T04:12:57.544Z,43.15
2023-05-01T04:13:57.604Z,43.19
2023-05-01T04:14:57.691Z,43.20
2023-05-01T04:15:57.771Z,43.19
2023-05-01T04:16:57.778Z,43.21
2023-05-01T04:17:57.877Z,43.19
2023-05-01T04:18:57.896Z,43.20
2023-05-01T04:19:58.128Z,43.18
2023-05-01T04:20:58.006Z,43.19
2023-05-01T04:21:58.070Z,43.17
2023-05-01T04:22:58.125Z,43.19
2023-05-01T04:23:58.187Z,43.20
2023-05-01T04:24:58.258Z,43.17
2023-05-01T04:25:58.312Z,43.19
2023-05-01T04:26:58.380Z,43.21
2023-05-01T04:27:58.424Z,43.18
2023-05-01T04:28:58.556Z,43.19
2023-05-01T04:29:58.738Z,43.21
2023-05-01T04:30:58.588Z,43.21
2023-05-01T04:31:58.763Z,43.22
2023-05-01T04:32:58.783Z,43.19
2023-05-01T04:33:58.788Z,43.21
2023-05-01T04:34:58.849Z,43.24
2023-05-01T04:35:58.900Z,43.25
2023-05-01T04:36:58.970Z,43.22
2023-05-01T04:37:59.016Z,43.24
2023-05-01T04:38:59.084Z,43.27
2023-05-01T04:39:59.221Z,43.25
2023-05-01T04:40:59.227Z,43.26
2023-05-01T04:41:59.281Z,43.24
2023-05-01T04:42:59.326Z,43.28
2023-05-01T04:43:59.394Z,43.26
2023-05-01T04:44:59.458Z,43.26
2023-05-01T04:45:59.502Z,43.26
2023-05-01T04:46:59.590Z,43.28
2023-05-01T04:47:59.618Z,43.27
2023-05-01T04:48:59.639Z,43.26
2023-05-01T04:49:59.710Z,43.28
2023-05-01T04:50:59.762Z,43.27
2023-05-01T04:51:59.822Z,43.27
2023-05-01T04:52:59.831Z,43.28
2023-05-01T04:53:59.841Z,43.31
2023-05-01T04:54:59.820Z,43.29
2023-05-01T04:55:59.818Z,43.28
2023-05-01T04:56:59.834Z,43.30
2023-05-01T04:57:59.823Z,43.30
2023-05-01T04:58:59.832Z,43.29
2023-05-01T04:59:59.915Z,43.29
2023-05-01T05:00:59.805Z,43.29
2023-05-01T05:02:00.001Z,43.28
2023-05-01T05:03:00.009Z,43.30
2023-05-01T05:04:00.044Z,43.30
2023-05-01T05:05:00.030Z,43.30
2023-05-01T05:06:00.223Z,43.32
2023-05-01T05:07:00.176Z,43.32
2023-05-01T05:08:00.186Z,43.33
2023-05-01T05:09:00.251Z,43.30
2023-05-01T05:10:00.303Z,43.31
2023-05-01T05:11:00.372Z,43.33
2023-05-01T05:12:00.373Z,43.31
2023-05-01T05:13:00.427Z,43.28
2023-05-01T05:14:00.496Z,43.31
2023-05-01T05:15:00.566Z,43.34
2023-05-01T05:16:00.654Z,43.31
2023-05-01T05:17:00.714Z,43.34
2023-05-01T05:18:00.854Z,43.33
2023-05-01T05:19:00.779Z,43.34
2023-05-01T05:20:00.864Z,43.34
2023-05-01T05:21:00.922Z,43.33
2023-05-01T05:22:00.982Z,43.35
2023-05-01T05:23:01.037Z,43.35
2023-05-01T05:24:01.106Z,43.37
2023-05-01T05:25:01.165Z,43.37
2023-05-01T05:26:01.228Z,43.38
2023-05-01T05:27:01.287Z,43.38
2023-05-01T05:28:01.350Z,43.35
2023-05-01T05:29:01.436Z,43.37
2023-05-01T05:30:01.514Z,43.39
2023-05-01T05:31:01.571Z,43.37
2023-05-01T05:32:01.667Z,43.38
2023-05-01T05:33:01.711Z,43.39
2023-05-01T05:34:01.745Z,43.39
2023-05-01T05:35:01.795Z,43.42
2023-05-01T05:36:01.858Z,43.40
2023-05-01T05:37:01.920Z,43.40
2023-05-01T05:38:01.995Z,43.40
2023-05-01T05:39:02.048Z,43.40
2023-05-01T05:40:02.084Z,43.41
2023-05-01T05:41:02.156Z,43.40
2023-05-01T05:42:02.210Z,43.37
2023-05-01T05:43:02.268Z,43.38
2023-05-01T05:44:02.322Z,43.37
2023-05-01T05:45:02.388Z,43.39
2023-05-01T05:46:02.468Z,43.38
2023-05-01T05:47:02.517Z,43.41
2023-05-01T05:48:02.602Z,43.40
2023-05-01T05:49:02.631Z,43.41
2023-05-01T05:50:02.684Z,43.39
2023-05-01T05:51:02.750Z,43.40
2023-05-01T05:52:02.799Z,43.41
2023-05-01T05:53:02.854Z,43.41
2023-05-01T05:54:02.911Z,43.40
2023-05-01T05:55:02.980Z,43.42
2023-05-01T05:56:03.034Z,43.42
2023-05-01T05:57:03.114Z,43.42
2023-05-01T05:58:03.178Z,43.43
2023-05-01T05:59:03.191Z,43.45
2023-05-01T06:00:03.237Z,43.41
2023-05-01T06:01:03.284Z,43.44
2023-05-01T06:02:03.348Z,43.45
2023-05-01T06:03:03.515Z,43.45
2023-05-01T06:04:03.459Z,43.47
2023-05-01T06:06:03.777Z,43.48
2023-05-01T06:07:03.728Z,43.46
2023-05-01T06:08:03.675Z,43.48
2023-05-01T06:09:03.729Z,43.43
2023-05-01T06:10:03.765Z,43.46
2023-05-01T06:11:03.810Z,43.45
2023-05-01T06:12:03.855Z,43.46
2023-05-01T06:13:13.425Z,43.47
2023-05-01T06:14:04.906Z,43.48
2023-05-01T06:15:03.969Z,43.49
2023-05-01T06:16:03.942Z,43.45
2023-05-01T06:17:03.906Z,43.47
2023-05-01T06:18:03.955Z,43.48
2023-05-01T06:19:03.912Z,43.46
2023-05-01T06:20:03.914Z,43.49
2023-05-01T06:21:03.908Z,43.50
2023-05-01T06:22:03.930Z,43.48
2023-05-01T06:23:03.946Z,43.50
2023-05-01T06:24:04.017Z,43.49
2023-05-01T06:25:04.085Z,43.47
2023-05-01T06:26:04.140Z,43.48
2023-05-01T06:27:04.213Z,43.49
2023-05-01T06:28:04.269Z,43.49
2023-05-01T06:29:04.317Z,43.49
2023-05-01T06:30:04.398Z,43.52
2023-05-01T06:31:04.469Z,43.51
2023-05-01T06:32:04.482Z,43.52
2023-05-01T06:33:04.647Z,43.52
2023-05-01T06:34:04.603Z,43.51
2023-05-01T06:35:04.652Z,43.50
2023-05-01T06:36:04.706Z,43.52
2023-05-01T06:37:04.763Z,43.52
2023-05-01T06:38:04.816Z,43.52
2023-05-01T06:39:04.878Z,43.52
2023-05-01T06:40:04.931Z,43.54
2023-05-01T06:41:05.002Z,43.56
2023-05-01T06:42:05.083Z,43.57
2023-05-01T06:43:05.103Z,43.57
2023-05-01T06:44:05.168Z,43.56
2023-05-01T06:45:05.225Z,43.55
2023-05-01T06:46:05.285Z,43.56
2023-05-01T06:47:05.411Z,43.55
2023-05-01T06:48:05.519Z,43.59
2023-05-01T06:49:05.463Z,43.58
2023-05-01T06:50:05.964Z,43.57
2023-05-01T06:51:05.558Z,43.56
2023-05-01T06:52:05.619Z,43.57
2023-05-01T06:53:05.679Z,43.56
2023-05-01T06:54:05.739Z,43.59
2023-05-01T06:55:05.810Z,43.59
2023-05-01T06:56:05.873Z,43.58
2023-05-01T06:57:05.942Z,43.61
2023-05-01T06:58:16.052Z,43.61
2023-05-01T06:59:07.013Z,43.63
2023-05-01T07:00:06.007Z,43.61
2023-05-01T07:01:06.089Z,43.61
2023-05-01T07:02:06.020Z,43.63
2023-05-01T07:03:06.030Z,43.64
2023-05-01T07:04:06.003Z,43.65
2023-05-01T07:05:06.027Z,43.64
2023-05-01T07:06:06.048Z,43.61
2023-05-01T07:07:06.011Z,43.63
2023-05-01T07:08:06.082Z,43.65
2023-05-01T07:09:06.145Z,43.63
2023-05-01T07:10:06.208Z,43.65
2023-05-01T07:11:06.285Z,43.65
2023-05-01T07:12:06.348Z,43.65
2023-05-01T07:13:06.385Z,43.68
2023-05-01T07:14:06.451Z,43.67
2023-05-01T07:15:06.519Z,43.68
2023-05-01T07:16:06.580Z,43.67
2023-05-01T07:17:06.627Z,43.66
2023-05-01T07:18:06.791Z,43.68
2023-05-01T07:19:06.747Z,43.66
2023-05-01T07:20:06.795Z,43.67
2023-05-01T07:21:06.843Z,43.69
2023-05-01T07:22:06.899Z,43.67
2023-05-01T07:23:07.788Z,43.67
2023-05-01T07:24:07.025Z,43.69
2023-05-01T07:25:07.078Z,43.69
2023-05-01T07:26:07.139Z,43.68
2023-05-01T07:27:07.198Z,43.69
2023-05-01T07:28:07.252Z,43.67
2023-05-01T07:29:07.355Z,43.70
2023-05-01T07:30:07.350Z,43.70
2023-05-01T07:31:07.422Z,43.71
2023-05-01T07:32:07.588Z,43.68
2023-05-01T07:33:07.544Z,43.73
2023-05-01T07:34:07.581Z,43.70
2023-05-01T07:35:07.628Z,43.70
2023-05-01T07:36:07.670Z,43.74
2023-05-01T07:37:07.728Z,43.73
2023-05-01T07:38:07.776Z,43.74
2023-05-01T07:39:07.833Z,43.74
2023-05-01T07:40:07.904Z,43.73
2023-05-01T07:41:07.952Z,43.73
2023-05-01T07:42:08.025Z,43.74
2023-05-01T07:43:08.054Z,43.75
2023-05-01T07:44:08.155Z,43.75
2023-05-01T07:45:53.682Z,43.76
2023-05-01T07:46:53.660Z,43.75
2023-05-01T07:47:53.669Z,43.77
2023-05-01T07:48:53.648Z,43.76
2023-05-01T07:49:53.822Z,43.76
2023-05-01T07:50:53.619Z,43.76
2023-05-01T07:51:53.612Z,43.77
2023-05-01T07:52:53.589Z,43.77
2023-05-01T07:53:53.574Z,43.77
2023-05-01T07:54:53.567Z,43.80
2023-05-01T07:55:53.562Z,43.79
2023-05-01T07:56:53.550Z,43.78
2023-05-01T07:57:53.541Z,43.79
2023-05-01T07:58:53.532Z,43.78
2023-05-01T07:59:53.743Z,43.79
2023-05-01T08:00:53.510Z,43.81
2023-05-01T08:01:53.555Z,43.84
2023-05-01T08:02:53.658Z,43.79
2023-05-01T08:03:53.585Z,43.81
2023-05-01T08:04:53.577Z,43.82
2023-05-01T08:05:53.466Z,43.79
2023-05-01T08:06:53.512Z,43.82
2023-05-01T08:07:53.454Z,43.82
2023-05-01T08:08:53.456Z,43.83
2023-05-01T08:09:53.522Z,43.84
2023-05-01T08:10:53.445Z,43.83
2023-05-01T08:11:53.425Z,43.83
2023-05-01T08:12:53.411Z,43.83
2023-05-01T08:13:53.395Z,43.83
2023-05-01T08:14:53.395Z,43.82
2023-05-01T08:15:53.403Z,43.83
2023-05-01T08:16:53.365Z,43.85
2023-05-01T08:17:53.405Z,43.87
2023-05-01T08:18:53.343Z,43.87
2023-05-01T08:19:53.372Z,43.85
2023-05-01T08:20:53.331Z,43.83
2023-05-01T08:21:53.316Z,43.86
2023-05-01T08:22:53.306Z,43.85
2023-05-01T08:23:53.284Z,43.85
2023-05-01T08:24:53.277Z,43.89
2023-05-01T08:25:53.258Z,43.87
2023-05-01T08:26:53.240Z,43.86
2023-05-01T08:27:53.228Z,43.87
2023-05-01T08:28:53.211Z,43.85
2023-05-01T08:29:53.195Z,43.85
2023-05-01T08:30:53.177Z,43.87
2023-05-01T08:31:53.253Z,43.86
2023-05-01T08:32:53.218Z,43.87
2023-05-01T08:33:53.139Z,43.87
2023-05-01T08:34:53.115Z,43.84
2023-05-01T08:35:53.121Z,43.87
2023-05-01T08:36:53.151Z,43.86
2023-05-01T08:37:53.214Z,43.89
2023-05-01T08:38:53.263Z,43.85
2023-05-01T08:39:53.296Z,43.83
2023-05-01T08:40:53.361Z,43.86
2023-05-01T08:41:53.389Z,43.87
2023-05-01T08:42:53.501Z,43.86
2023-05-01T08:43:53.473Z,43.87
2023-05-01T08:44:53.523Z,43.87
2023-05-01T08:45:53.552Z,43.85
2023-05-01T08:46:53.611Z,43.87
2023-05-01T08:47:53.645Z,43.88
2023-05-01T08:48:53.634Z,43.87
2023-05-01T08:49:53.764Z,43.91
2023-05-01T08:50:53.742Z,43.88
2023-05-01T08:51:53.799Z,43.93
2023-05-01T08:52:53.823Z,43.93
2023-05-01T08:53:53.875Z,43.91
2023-05-01T08:54:53.905Z,43.91
2023-05-01T08:55:53.940Z,43.95
2023-05-01T08:56:53.952Z,43.95
2023-05-01T08:57:54.007Z,43.92
2023-05-01T08:58:54.035Z,43.96
2023-05-01T08:59:54.115Z,43.96
2023-05-01T09:00:54.040Z,43.96
2023-05-01T09:01:54.083Z,43.96
2023-05-01T09:02:54.129Z,43.95
2023-05-01T09:03:54.203Z,43.98
2023-05-01T09:04:54.163Z,43.98
2023-05-01T09:05:54.192Z,43.98
2023-05-01T09:06:54.272Z,43.96
2023-05-01T09:07:54.290Z,43.98
2023-05-01T09:08:54.314Z,43.97
2023-05-01T09:09:54.428Z,43.98
2023-05-01T09:10:54.406Z,43.97
2023-05-01T09:11:54.434Z,43.98
2023-05-01T09:12:54.480Z,43.99
2023-05-01T09:13:54.518Z,43.98
2023-05-01T09:14:54.556Z,44.00
2023-05-01T09:15:54.645Z,44.00
2023-05-01T09:16:54.738Z,43.98
2023-05-01T09:17:54.850Z,44.00
2023-05-01T09:18:54.756Z,43.99
2023-05-01T09:19:54.980Z,43.97
2023-05-01T09:20:54.835Z,43.99
2023-05-01T09:21:54.874Z,43.98
2023-05-01T09:22:54.934Z,44.00
2023-05-01T09:23:54.973Z,43.96
2023-05-01T09:24:55.037Z,44.00
2023-05-01T09:25:55.083Z,43.99
2023-05-01T09:26:55.141Z,44.00
2023-05-01T09:27:55.170Z,44.00
2023-05-01T09:28:55.211Z,43.99
2023-05-01T09:29:55.404Z,44.02
2023-05-01T09:30:55.292Z,44.04
2023-05-01T09:31:55.380Z,44.02
2023-05-01T09:32:55.436Z,44.03
2023-05-01T09:33:55.459Z,44.04
2023-05-01T09:34:55.492Z,44.05
2023-05-01T09:35:55.527Z,44.04
2023-05-01T09:36:55.566Z,44.05
2023-05-01T09:37:55.595Z,44.05
2023-05-01T09:38:55.643Z,44.05
2023-05-01T09:39:55.811Z,44.07
2023-05-01T09:40:55.730Z,44.07
2023-05-01T09:41:55.766Z,44.06
2023-05-01T09:42:55.811Z,44.05
2023-05-01T09:43:55.841Z,44.08
2023-05-01T09:44:55.880Z,44.08
2023-05-01T09:45:55.990Z,44.10
2023-05-01T09:46:55.973Z,44.07
2023-05-01T09:47:56.034Z,44.09
2023-05-01T09:48:56.086Z,44.07
2023-05-01T09:49:56.275Z,44.09
2023-05-01T09:50:56.174Z,44.10
2023-05-01T09:51:56.227Z,44.09
2023-05-01T09:52:56.282Z,44.10
2023-05-01T09:53:56.324Z,44.09
2023-05-01T09:54:56.378Z,44.11
2023-05-01T09:55:56.406Z,44.10
2023-05-01T09:56:56.437Z,44.11
2023-05-01T09:57:56.475Z,44.10
2023-05-01T09:58:56.526Z,44.12
2023-05-01T09:59:56.747Z,44.13
2023-05-01T10:00:56.598Z,44.11
2023-05-01T10:01:56.681Z,44.14
2023-05-01T10:02:56.783Z,44.14
2023-05-01T10:03:56.935Z,44.13
2023-05-01T10:04:56.740Z,44.12
2023-05-01T10:05:56.910Z,44.12
2023-05-01T10:06:56.937Z,44.14
2023-05-01T10:07:56.888Z,44.15
2023-05-01T10:08:56.948Z,44.13
2023-05-01T10:09:59.227Z,44.14
2023-05-01T10:10:56.966Z,44.13
2023-05-01T10:11:56.970Z,44.14
2023-05-01T10:12:56.979Z,44.17
2023-05-01T10:13:56.934Z,44.14
2023-05-01T10:14:56.919Z,44.18
2023-05-01T10:15:56.895Z,44.17
2023-05-01T10:16:56.973Z,44.15
2023-05-01T10:17:56.936Z,44.16
2023-05-01T10:18:57.412Z,44.15
2023-05-01T10:19:57.184Z,44.18
2023-05-01T10:20:56.833Z,44.18
2023-05-01T10:21:56.822Z,44.15
2023-05-01T10:22:56.811Z,44.18
2023-05-01T10:23:56.796Z,44.17
2023-05-01T10:24:56.782Z,44.19
2023-05-01T10:25:56.790Z,44.19
2023-05-01T10:26:56.782Z,44.18
2023-05-01T10:27:56.754Z,44.18
2023-05-01T10:28:56.737Z,44.17
2023-05-01T10:29:56.963Z,44.16
2023-05-01T10:30:56.765Z,44.18
2023-05-01T10:31:56.844Z,44.18
2023-05-01T10:32:56.734Z,44.20
2023-05-01T10:33:56.649Z,44.20
2023-05-01T10:34:56.871Z,44.19
2023-05-01T10:35:56.642Z,44.17
2023-05-01T10:36:56.604Z,44.17
2023-05-01T10:37:56.588Z,44.20
2023-05-01T10:38:56.614Z,44.18
2023-05-01T10:39:56.637Z,44.21
2023-05-01T10:40:56.681Z,44.20
2023-05-01T10:41:56.720Z,44.20
2023-05-01T10:42:56.770Z,44.17
2023-05-01T10:43:56.810Z,44.16
2023-05-01T10:44:57.530Z,44.22
2023-05-01T10:45:56.933Z,44.22
2023-05-01T10:46:57.013Z,44.19
2023-05-01T10:47:57.008Z,44.19
2023-05-01T10:48:57.001Z,44.21
2023-05-01T10:49:57.010Z,44.19
2023-05-01T10:50:57.018Z,44.20
2023-05-01T10:51:57.040Z,44.22
2023-05-01T10:52:57.053Z,44.21
2023-05-01T10:53:58.030Z,44.23
2023-05-01T10:54:57.240Z,44.22
2023-05-01T10:55:56.983Z,44.22
2023-05-01T10:56:56.958Z,44.25
2023-05-01T10:57:56.938Z,44.22
2023-05-01T10:58:56.921Z,44.25
2023-05-01T10:59:56.887Z,44.25
2023-05-01T11:00:56.865Z,44.24
2023-05-01T11:01:56.874Z,44.23
2023-05-01T11:02:56.861Z,44.22
2023-05-01T11:03:56.800Z,44.25
2023-05-01T11:04:57.158Z,44.25
2023-05-01T11:05:56.784Z,44.26
2023-05-01T11:06:56.857Z,44.27
2023-05-01T11:07:56.832Z,44.26
2023-05-01T11:08:56.879Z,44.26
2023-05-01T11:09:56.910Z,44.26
2023-05-01T11:10:56.960Z,44.27
2023-05-01T11:11:56.991Z,44.28
2023-05-01T11:12:57.037Z,44.27
2023-05-01T11:13:57.044Z,44.24
2023-05-01T11:14:57.327Z,44.28
2023-05-01T11:15:57.178Z,44.27
2023-05-01T11:16:57.159Z,44.28
2023-05-01T11:17:57.310Z,44.30
2023-05-01T11:18:57.235Z,44.28
2023-05-01T11:19:57.267Z,44.29
2023-05-01T11:20:57.313Z,44.28
2023-05-01T11:21:57.349Z,44.25
2023-05-01T11:22:57.427Z,44.28
2023-05-01T11:23:57.448Z,44.26
2023-05-01T11:24:57.691Z,44.30
2023-05-01T11:25:57.508Z,44.30
2023-05-01T11:26:57.553Z,44.30
2023-05-01T11:27:57.598Z,44.30
2023-05-01T11:28:57.626Z,44.30
2023-05-01T11:29:57.666Z,44.29
2023-05-01T11:30:57.711Z,44.32
2023-05-01T11:31:57.830Z,44.30
2023-05-01T11:32:57.875Z,44.31
2023-05-01T11:33:57.849Z,44.32
2023-05-01T11:34:58.167Z,44.31
2023-05-01T11:35:57.937Z,44.31
2023-05-01T11:36:57.998Z,44.29
2023-05-01T11:37:58.022Z,44.30
2023-05-01T11:38:58.074Z,44.32
2023-05-01T11:39:58.120Z,44.29
2023-05-01T11:40:58.169Z,44.32
2023-05-01T11:41:58.218Z,44.29
2023-05-01T11:42:58.244Z,44.31
2023-05-01T11:43:58.284Z,44.29
2023-05-01T11:44:58.431Z,44.29
2023-05-01T11:45:58.392Z,44.30
2023-05-01T11:46:58.349Z,44.29
2023-05-01T11:47:59.143Z,44.29
2023-05-01T11:48:58.416Z,44.30
2023-05-01T11:49:58.509Z,44.31
2023-05-01T11:50:58.455Z,44.30
2023-05-01T11:51:58.479Z,44.31
2023-05-01T11:52:58.547Z,44.28
2023-05-01T11:53:58.567Z,44.32
2023-05-01T11:54:58.629Z,44.30
2023-05-01T11:55:58.623Z,44.35
2023-05-01T11:56:58.654Z,44.34
2023-05-01T11:57:58.826Z,44.35
2023-05-01T11:58:58.730Z,44.35
2023-05-01T11:59:58.743Z,44.36
2023-05-01T12:00:58.778Z,44.37
2023-05-01T12:01:58.833Z,44.38
2023-05-01T12:02:58.923Z,44.38
2023-05-01T12:03:58.900Z,44.38
2023-05-01T12:04:59.192Z,44.37
2023-05-01T12:05:59.000Z,44.39
2023-05-01T12:06:59.000Z,44.37
2023-05-01T12:07:59.037Z,44.38
2023-05-01T12:08:59.066Z,44.38
2023-05-01T12:09:59.092Z,44.39
2023-05-01T12:10:59.123Z,44.39
2023-05-01T12:11:59.149Z,44.38
2023-05-01T12:12:59.173Z,44.37
2023-05-01T12:13:59.162Z,44.41
2023-05-01T12:14:59.421Z,44.38
2023-05-01T12:15:59.120Z,44.38
2023-05-01T12:16:59.147Z,44.38
2023-05-01T12:17:59.130Z,44.40
2023-05-01T12:18:59.073Z,44.38
2023-05-01T12:19:59.057Z,44.37
2023-05-01T12:20:59.047Z,44.38
2023-05-01T12:21:59.033Z,44.40
2023-05-01T12:22:59.032Z,44.39
2023-05-01T12:23:59.087Z,44.39
2023-05-01T12:24:59.303Z,44.43
2023-05-01T12:25:59.166Z,44.37
2023-05-01T12:26:59.222Z,44.40
2023-05-01T12:27:59.252Z,44.39
2023-05-01T12:28:59.292Z,44.40
2023-05-01T12:29:59.313Z,44.39
2023-05-01T12:30:59.354Z,44.41
2023-05-01T12:31:59.416Z,44.41
2023-05-01T12:32:59.459Z,44.40
2023-05-01T12:33:59.443Z,44.39
2023-05-01T12:34:59.772Z,44.41
2023-05-01T12:35:59.502Z,44.39
2023-05-01T12:36:59.553Z,44.41
2023-05-01T12:37:59.607Z,44.39
2023-05-01T12:38:59.632Z,44.39
2023-05-01T12:39:59.669Z,44.38
2023-05-01T12:40:59.740Z,44.38
2023-05-01T12:41:59.739Z,44.39
2023-05-01T12:42:59.771Z,44.38
2023-05-01T12:43:59.799Z,44.36
2023-05-01T12:45:00.083Z,44.38
2023-05-01T12:45:59.862Z,44.36
2023-05-01T12:46:59.935Z,44.38
2023-05-01T12:47:59.933Z,44.39
2023-05-01T12:48:59.874Z,44.38
2023-05-01T12:50:00.069Z,44.38
2023-05-01T12:50:59.931Z,44.40
2023-05-01T12:51:59.947Z,44.37
2023-05-01T12:52:59.956Z,44.36
2023-05-01T12:53:59.971Z,44.38
2023-05-01T12:55:00.074Z,44.41